In Rescue
 
Open Full Screen Window  High Contrast Mode
Wind Gusting 00 knots
03
September 19, 2019 4:48 PM EDT
Weather Information
Wind Direction
  170 °
Wind Speed
  03 kt (3 mph)
Wind Gust
  00 kt (0 mph)
Altimeter
30.06 in
Visibility
10 SM
Temperature
23° C
73° F
Dewpoint
17° C
63° F
Humidity
69%
1hr Rain Fall
00.00 in.
24hr Rain Fall
00.00 in.
Sky Condition
Clear
VFR

METAR KLDM 192048Z AUTO 17003KT 10SM CLR 23/17 A3006 RMK AO2 T02330166

FAA Disclaimer: The data displayed is for advisory purposes only and is not to be used for flight planning or operations.